sensor_id;sensor_type;location;lat;lon;timestamp;P1;durP1;ratioP1;P2;durP2;ratioP2
75035;SDS011;64247;51.540;5.854;2023-06-14T00:01:08;10.27;;;6.75;;
75035;SDS011;64247;51.540;5.854;2023-06-14T00:03:10;10.90;;;7.20;;
75035;SDS011;64247;51.540;5.854;2023-06-14T00:05:12;11.10;;;6.57;;
75035;SDS011;64247;51.540;5.854;2023-06-14T00:07:13;9.18;;;6.55;;
75035;SDS011;64247;51.540;5.854;2023-06-14T00:09:16;10.73;;;7.15;;
75035;SDS011;64247;51.540;5.854;2023-06-14T00:11:18;10.63;;;6.22;;
75035;SDS011;64247;51.540;5.854;2023-06-14T00:13:18;13.05;;;7.82;;
75035;SDS011;64247;51.540;5.854;2023-06-14T00:15:19;10.07;;;7.60;;
75035;SDS011;64247;51.540;5.854;2023-06-14T00:17:21;12.20;;;6.60;;
75035;SDS011;64247;51.540;5.854;2023-06-14T00:19:22;10.18;;;7.70;;
75035;SDS011;64247;51.540;5.854;2023-06-14T00:21:23;12.13;;;6.95;;
75035;SDS011;64247;51.540;5.854;2023-06-14T00:23:24;9.05;;;6.88;;
75035;SDS011;64247;51.540;5.854;2023-06-14T00:25:25;9.20;;;6.50;;
75035;SDS011;64247;51.540;5.854;2023-06-14T00:27:27;11.00;;;6.75;;
75035;SDS011;64247;51.540;5.854;2023-06-14T00:29:28;7.03;;;5.93;;
75035;SDS011;64247;51.540;5.854;2023-06-14T00:31:29;9.90;;;6.80;;
75035;SDS011;64247;51.540;5.854;2023-06-14T00:33:30;9.90;;;6.40;;
75035;SDS011;64247;51.540;5.854;2023-06-14T00:35:31;8.43;;;6.22;;
75035;SDS011;64247;51.540;5.854;2023-06-14T00:37:32;7.70;;;5.90;;
75035;SDS011;64247;51.540;5.854;2023-06-14T00:39:33;7.65;;;5.65;;
75035;SDS011;64247;51.540;5.854;2023-06-14T00:41:35;8.43;;;5.85;;
75035;SDS011;64247;51.540;5.854;2023-06-14T00:43:35;7.05;;;5.40;;
75035;SDS011;64247;51.540;5.854;2023-06-14T00:45:36;8.60;;;6.15;;
75035;SDS011;64247;51.540;5.854;2023-06-14T00:47:37;10.40;;;6.38;;
75035;SDS011;64247;51.540;5.854;2023-06-14T00:49:45;7.20;;;5.72;;
75035;SDS011;64247;51.540;5.854;2023-06-14T00:51:47;8.02;;;5.55;;
75035;SDS011;64247;51.540;5.854;2023-06-14T00:53:48;8.13;;;5.78;;
75035;SDS011;64247;51.540;5.854;2023-06-14T00:55:51;7.20;;;5.60;;
75035;SDS011;64247;51.540;5.854;2023-06-14T00:57:53;8.52;;;5.75;;
75035;SDS011;64247;51.540;5.854;2023-06-14T00:59:55;8.32;;;5.68;;
75035;SDS011;64247;51.540;5.854;2023-06-14T01:01:56;7.95;;;5.88;;
75035;SDS011;64247;51.540;5.854;2023-06-14T01:03:57;7.47;;;5.45;;
75035;SDS011;64247;51.540;5.854;2023-06-14T01:11:39;6.50;;;4.90;;
75035;SDS011;64247;51.540;5.854;2023-06-14T01:13:54;8.30;;;5.57;;
75035;SDS011;64247;51.540;5.854;2023-06-14T01:15:58;8.55;;;4.97;;
75035;SDS011;64247;51.540;5.854;2023-06-14T01:18:00;6.57;;;5.25;;
75035;SDS011;64247;51.540;5.854;2023-06-14T01:20:05;10.88;;;5.68;;
75035;SDS011;64247;51.540;5.854;2023-06-14T01:22:10;9.73;;;5.65;;
75035;SDS011;64247;51.540;5.854;2023-06-14T01:24:11;8.18;;;5.10;;
75035;SDS011;64247;51.540;5.854;2023-06-14T01:26:12;7.18;;;5.53;;
75035;SDS011;64247;51.540;5.854;2023-06-14T01:28:13;10.57;;;4.70;;
75035;SDS011;64247;51.540;5.854;2023-06-14T01:30:17;6.78;;;4.82;;
75035;SDS011;64247;51.540;5.854;2023-06-14T01:32:20;12.07;;;5.35;;
75035;SDS011;64247;51.540;5.854;2023-06-14T01:34:21;6.45;;;5.13;;
75035;SDS011;64247;51.540;5.854;2023-06-14T01:36:25;7.75;;;4.82;;
75035;SDS011;64247;51.540;5.854;2023-06-14T01:38:31;11.13;;;4.90;;
75035;SDS011;64247;51.540;5.854;2023-06-14T01:40:33;9.48;;;5.50;;
75035;SDS011;64247;51.540;5.854;2023-06-14T01:42:35;8.40;;;5.00;;
75035;SDS011;64247;51.540;5.854;2023-06-14T01:44:38;10.98;;;4.75;;
75035;SDS011;64247;51.540;5.854;2023-06-14T01:46:40;6.88;;;4.93;;
75035;SDS011;64247;51.540;5.854;2023-06-14T01:48:42;6.35;;;4.57;;
75035;SDS011;64247;51.540;5.854;2023-06-14T01:50:43;8.23;;;4.90;;
75035;SDS011;64247;51.540;5.854;2023-06-14T01:52:44;10.43;;;5.53;;
75035;SDS011;64247;51.540;5.854;2023-06-14T01:54:45;5.93;;;4.78;;
75035;SDS011;64247;51.540;5.854;2023-06-14T01:56:45;5.45;;;4.30;;
75035;SDS011;64247;51.540;5.854;2023-06-14T01:58:46;9.75;;;5.00;;
75035;SDS011;64247;51.540;5.854;2023-06-14T02:00:48;10.02;;;4.78;;
75035;SDS011;64247;51.540;5.854;2023-06-14T02:02:49;9.30;;;4.20;;
75035;SDS011;64247;51.540;5.854;2023-06-14T02:04:50;9.38;;;5.15;;
75035;SDS011;64247;51.540;5.854;2023-06-14T02:06:51;11.48;;;4.88;;
75035;SDS011;64247;51.540;5.854;2023-06-14T02:08:52;5.97;;;4.40;;
75035;SDS011;64247;51.540;5.854;2023-06-14T02:10:53;6.45;;;4.53;;
75035;SDS011;64247;51.540;5.854;2023-06-14T02:12:55;10.90;;;4.45;;
75035;SDS011;64247;51.540;5.854;2023-06-14T02:14:56;7.55;;;4.03;;
75035;SDS011;64247;51.540;5.854;2023-06-14T02:16:58;10.43;;;5.25;;
75035;SDS011;64247;51.540;5.854;2023-06-14T02:18:59;9.57;;;4.63;;
75035;SDS011;64247;51.540;5.854;2023-06-14T02:20:59;9.15;;;4.60;;
75035;SDS011;64247;51.540;5.854;2023-06-14T02:23:00;13.82;;;4.78;;
75035;SDS011;64247;51.540;5.854;2023-06-14T02:25:01;8.40;;;4.95;;
75035;SDS011;64247;51.540;5.854;2023-06-14T02:27:03;10.40;;;4.20;;
75035;SDS011;64247;51.540;5.854;2023-06-14T02:29:05;9.70;;;4.68;;
75035;SDS011;64247;51.540;5.854;2023-06-14T02:31:06;7.63;;;4.10;;
75035;SDS011;64247;51.540;5.854;2023-06-14T02:33:06;7.72;;;4.07;;
75035;SDS011;64247;51.540;5.854;2023-06-14T02:35:07;8.15;;;4.65;;
75035;SDS011;64247;51.540;5.854;2023-06-14T02:37:09;6.75;;;4.35;;
75035;SDS011;64247;51.540;5.854;2023-06-14T02:39:11;8.35;;;4.00;;
75035;SDS011;64247;51.540;5.854;2023-06-14T02:41:12;10.38;;;4.40;;
75035;SDS011;64247;51.540;5.854;2023-06-14T02:43:12;8.68;;;4.00;;
75035;SDS011;64247;51.540;5.854;2023-06-14T02:45:13;8.32;;;4.28;;
75035;SDS011;64247;51.540;5.854;2023-06-14T02:47:15;14.90;;;4.82;;
75035;SDS011;64247;51.540;5.854;2023-06-14T02:49:18;6.55;;;4.30;;
75035;SDS011;64247;51.540;5.854;2023-06-14T02:51:18;8.15;;;4.60;;
75035;SDS011;64247;51.540;5.854;2023-06-14T02:53:19;9.93;;;4.57;;
75035;SDS011;64247;51.540;5.854;2023-06-14T02:55:20;10.52;;;4.40;;
75035;SDS011;64247;51.540;5.854;2023-06-14T02:57:21;6.53;;;4.20;;
75035;SDS011;64247;51.540;5.854;2023-06-14T02:59:23;7.80;;;4.20;;
75035;SDS011;64247;51.540;5.854;2023-06-14T03:01:27;8.23;;;4.70;;
75035;SDS011;64247;51.540;5.854;2023-06-14T03:03:37;5.85;;;3.95;;
75035;SDS011;64247;51.540;5.854;2023-06-14T03:05:41;5.85;;;4.85;;
75035;SDS011;64247;51.540;5.854;2023-06-14T03:07:48;6.28;;;4.35;;
75035;SDS011;64247;51.540;5.854;2023-06-14T03:09:51;6.30;;;4.15;;
75035;SDS011;64247;51.540;5.854;2023-06-14T03:11:53;8.32;;;4.35;;
75035;SDS011;64247;51.540;5.854;2023-06-14T03:13:53;8.38;;;4.50;;
75035;SDS011;64247;51.540;5.854;2023-06-14T03:15:56;6.72;;;4.20;;
75035;SDS011;64247;51.540;5.854;2023-06-14T03:17:57;6.05;;;4.53;;
75035;SDS011;64247;51.540;5.854;2023-06-14T03:19:59;6.63;;;4.22;;
75035;SDS011;64247;51.540;5.854;2023-06-14T03:22:00;9.45;;;5.13;;
75035;SDS011;64247;51.540;5.854;2023-06-14T03:24:04;8.30;;;4.53;;
75035;SDS011;64247;51.540;5.854;2023-06-14T03:26:07;8.75;;;4.20;;
75035;SDS011;64247;51.540;5.854;2023-06-14T03:28:08;8.02;;;4.20;;
75035;SDS011;64247;51.540;5.854;2023-06-14T03:30:09;7.05;;;4.63;;
75035;SDS011;64247;51.540;5.854;2023-06-14T03:32:10;6.72;;;4.47;;
75035;SDS011;64247;51.540;5.854;2023-06-14T03:34:14;7.85;;;4.60;;
75035;SDS011;64247;51.540;5.854;2023-06-14T03:36:16;6.55;;;4.05;;
75035;SDS011;64247;51.540;5.854;2023-06-14T03:38:18;10.48;;;4.97;;
75035;SDS011;64247;51.540;5.854;2023-06-14T03:40:20;7.47;;;4.45;;
75035;SDS011;64247;51.540;5.854;2023-06-14T03:42:25;8.63;;;4.57;;
75035;SDS011;64247;51.540;5.854;2023-06-14T03:44:27;11.75;;;4.38;;
75035;SDS011;64247;51.540;5.854;2023-06-14T03:46:28;7.10;;;3.92;;
75035;SDS011;64247;51.540;5.854;2023-06-14T03:48:29;7.47;;;4.75;;
75035;SDS011;64247;51.540;5.854;2023-06-14T03:50:30;8.15;;;4.50;;
75035;SDS011;64247;51.540;5.854;2023-06-14T03:52:32;9.82;;;3.97;;
75035;SDS011;64247;51.540;5.854;2023-06-14T03:54:34;11.90;;;4.40;;
75035;SDS011;64247;51.540;5.854;2023-06-14T03:56:35;10.23;;;5.00;;
75035;SDS011;64247;51.540;5.854;2023-06-14T03:58:36;8.23;;;4.70;;
75035;SDS011;64247;51.540;5.854;2023-06-14T04:00:38;7.78;;;4.20;;
75035;SDS011;64247;51.540;5.854;2023-06-14T04:02:38;7.30;;;4.57;;
75035;SDS011;64247;51.540;5.854;2023-06-14T04:04:39;6.25;;;4.35;;
75035;SDS011;64247;51.540;5.854;2023-06-14T04:06:44;7.65;;;4.00;;
75035;SDS011;64247;51.540;5.854;2023-06-14T04:08:48;13.43;;;4.90;;
75035;SDS011;64247;51.540;5.854;2023-06-14T04:10:49;17.60;;;4.95;;
75035;SDS011;64247;51.540;5.854;2023-06-14T04:12:50;14.80;;;5.00;;
75035;SDS011;64247;51.540;5.854;2023-06-14T04:14:52;18.25;;;5.57;;
75035;SDS011;64247;51.540;5.854;2023-06-14T04:16:52;11.50;;;5.18;;
75035;SDS011;64247;51.540;5.854;2023-06-14T04:18:55;18.63;;;5.25;;
75035;SDS011;64247;51.540;5.854;2023-06-14T04:20:58;15.23;;;4.28;;
75035;SDS011;64247;51.540;5.854;2023-06-14T04:23:10;12.20;;;4.05;;
75035;SDS011;64247;51.540;5.854;2023-06-14T04:25:13;12.82;;;4.82;;
75035;SDS011;64247;51.540;5.854;2023-06-14T04:27:16;14.05;;;4.70;;
75035;SDS011;64247;51.540;5.854;2023-06-14T04:29:22;12.18;;;4.13;;
75035;SDS011;64247;51.540;5.854;2023-06-14T04:31:30;7.15;;;3.80;;
75035;SDS011;64247;51.540;5.854;2023-06-14T04:33:38;16.48;;;4.50;;
75035;SDS011;64247;51.540;5.854;2023-06-14T04:35:46;11.90;;;4.53;;
75035;SDS011;64247;51.540;5.854;2023-06-14T04:37:49;7.35;;;4.60;;
75035;SDS011;64247;51.540;5.854;2023-06-14T04:39:50;10.50;;;3.63;;
75035;SDS011;64247;51.540;5.854;2023-06-14T04:41:52;15.50;;;4.50;;
75035;SDS011;64247;51.540;5.854;2023-06-14T04:43:57;18.45;;;5.75;;
75035;SDS011;64247;51.540;5.854;2023-06-14T04:46:04;19.42;;;5.18;;
75035;SDS011;64247;51.540;5.854;2023-06-14T04:48:10;19.17;;;4.93;;
75035;SDS011;64247;51.540;5.854;2023-06-14T04:50:15;11.27;;;3.67;;
75035;SDS011;64247;51.540;5.854;2023-06-14T04:52:17;11.00;;;3.97;;
75035;SDS011;64247;51.540;5.854;2023-06-14T04:54:21;12.48;;;4.18;;
75035;SDS011;64247;51.540;5.854;2023-06-14T04:56:22;11.50;;;4.47;;
75035;SDS011;64247;51.540;5.854;2023-06-14T04:58:24;8.95;;;4.03;;
75035;SDS011;64247;51.540;5.854;2023-06-14T05:00:26;11.07;;;3.70;;
75035;SDS011;64247;51.540;5.854;2023-06-14T05:02:26;9.10;;;3.63;;
75035;SDS011;64247;51.540;5.854;2023-06-14T05:04:28;9.60;;;4.30;;
75035;SDS011;64247;51.540;5.854;2023-06-14T05:06:30;12.05;;;4.45;;
75035;SDS011;64247;51.540;5.854;2023-06-14T05:08:32;9.23;;;3.45;;
75035;SDS011;64247;51.540;5.854;2023-06-14T05:10:32;11.77;;;4.55;;
75035;SDS011;64247;51.540;5.854;2023-06-14T05:12:36;7.45;;;3.55;;
75035;SDS011;64247;51.540;5.854;2023-06-14T05:14:39;13.50;;;4.30;;
75035;SDS011;64247;51.540;5.854;2023-06-14T05:16:41;9.90;;;4.55;;
75035;SDS011;64247;51.540;5.854;2023-06-14T05:18:41;15.88;;;3.85;;
75035;SDS011;64247;51.540;5.854;2023-06-14T05:20:42;11.23;;;3.92;;
75035;SDS011;64247;51.540;5.854;2023-06-14T05:22:43;12.60;;;4.22;;
75035;SDS011;64247;51.540;5.854;2023-06-14T05:24:44;83.38;;;7.05;;
75035;SDS011;64247;51.540;5.854;2023-06-14T05:26:44;23.52;;;4.53;;
75035;SDS011;64247;51.540;5.854;2023-06-14T05:28:46;7.07;;;2.97;;
75035;SDS011;64247;51.540;5.854;2023-06-14T05:30:47;12.57;;;4.00;;
75035;SDS011;64247;51.540;5.854;2023-06-14T05:32:47;20.25;;;3.85;;
75035;SDS011;64247;51.540;5.854;2023-06-14T05:34:48;13.55;;;3.65;;
75035;SDS011;64247;51.540;5.854;2023-06-14T05:36:49;8.23;;;3.08;;
75035;SDS011;64247;51.540;5.854;2023-06-14T05:38:50;6.93;;;2.70;;
75035;SDS011;64247;51.540;5.854;2023-06-14T05:40:51;5.15;;;2.88;;
75035;SDS011;64247;51.540;5.854;2023-06-14T05:42:52;7.00;;;2.80;;
75035;SDS011;64247;51.540;5.854;2023-06-14T05:44:52;9.05;;;3.97;;
75035;SDS011;64247;51.540;5.854;2023-06-14T05:46:53;4.25;;;2.60;;
75035;SDS011;64247;51.540;5.854;2023-06-14T05:48:54;6.72;;;2.72;;
75035;SDS011;64247;51.540;5.854;2023-06-14T05:50:55;5.22;;;2.70;;
75035;SDS011;64247;51.540;5.854;2023-06-14T05:52:56;4.90;;;2.95;;
75035;SDS011;64247;51.540;5.854;2023-06-14T05:54:57;3.65;;;2.60;;
75035;SDS011;64247;51.540;5.854;2023-06-14T05:56:57;8.73;;;3.03;;
75035;SDS011;64247;51.540;5.854;2023-06-14T05:59:01;3.50;;;2.40;;
75035;SDS011;64247;51.540;5.854;2023-06-14T06:01:02;2.63;;;2.42;;
75035;SDS011;64247;51.540;5.854;2023-06-14T06:03:03;5.53;;;2.80;;
75035;SDS011;64247;51.540;5.854;2023-06-14T06:05:05;5.85;;;2.58;;
75035;SDS011;64247;51.540;5.854;2023-06-14T06:07:06;7.88;;;2.38;;
75035;SDS011;64247;51.540;5.854;2023-06-14T06:09:07;5.30;;;2.75;;
75035;SDS011;64247;51.540;5.854;2023-06-14T06:11:08;4.85;;;2.83;;
75035;SDS011;64247;51.540;5.854;2023-06-14T06:13:09;4.57;;;2.60;;
75035;SDS011;64247;51.540;5.854;2023-06-14T06:15:10;6.22;;;2.78;;
75035;SDS011;64247;51.540;5.854;2023-06-14T06:17:14;4.65;;;2.58;;
75035;SDS011;64247;51.540;5.854;2023-06-14T06:19:15;4.90;;;2.83;;
75035;SDS011;64247;51.540;5.854;2023-06-14T06:21:16;5.68;;;2.47;;
75035;SDS011;64247;51.540;5.854;2023-06-14T06:23:17;4.50;;;3.03;;
75035;SDS011;64247;51.540;5.854;2023-06-14T06:25:17;4.20;;;2.63;;
75035;SDS011;64247;51.540;5.854;2023-06-14T06:27:19;6.32;;;2.63;;
75035;SDS011;64247;51.540;5.854;2023-06-14T06:29:20;5.68;;;2.53;;
75035;SDS011;64247;51.540;5.854;2023-06-14T06:31:21;9.18;;;3.38;;
75035;SDS011;64247;51.540;5.854;2023-06-14T06:33:22;3.65;;;2.60;;
75035;SDS011;64247;51.540;5.854;2023-06-14T06:35:24;7.75;;;2.40;;
75035;SDS011;64247;51.540;5.854;2023-06-14T06:37:25;7.13;;;2.90;;
75035;SDS011;64247;51.540;5.854;2023-06-14T06:39:26;8.52;;;3.05;;
75035;SDS011;64247;51.540;5.854;2023-06-14T06:41:26;6.22;;;2.58;;
75035;SDS011;64247;51.540;5.854;2023-06-14T06:43:27;7.25;;;3.00;;
75035;SDS011;64247;51.540;5.854;2023-06-14T06:45:31;5.28;;;2.88;;
75035;SDS011;64247;51.540;5.854;2023-06-14T06:47:31;7.15;;;3.42;;
75035;SDS011;64247;51.540;5.854;2023-06-14T06:49:32;6.65;;;3.80;;
75035;SDS011;64247;51.540;5.854;2023-06-14T06:51:34;4.60;;;2.83;;
75035;SDS011;64247;51.540;5.854;2023-06-14T06:53:36;3.88;;;2.60;;
75035;SDS011;64247;51.540;5.854;2023-06-14T06:55:37;5.97;;;3.47;;
75035;SDS011;64247;51.540;5.854;2023-06-14T06:57:38;6.65;;;3.00;;
75035;SDS011;64247;51.540;5.854;2023-06-14T06:59:39;3.33;;;2.50;;
75035;SDS011;64247;51.540;5.854;2023-06-14T07:01:39;5.20;;;2.53;;
75035;SDS011;64247;51.540;5.854;2023-06-14T07:03:40;6.25;;;2.80;;
75035;SDS011;64247;51.540;5.854;2023-06-14T07:05:41;3.65;;;2.45;;
75035;SDS011;64247;51.540;5.854;2023-06-14T07:07:41;2.75;;;2.20;;
75035;SDS011;64247;51.540;5.854;2023-06-14T07:09:42;4.68;;;2.40;;
75035;SDS011;64247;51.540;5.854;2023-06-14T07:11:44;3.47;;;3.17;;
75035;SDS011;64247;51.540;5.854;2023-06-14T07:13:45;3.85;;;1.95;;
75035;SDS011;64247;51.540;5.854;2023-06-14T07:15:46;3.25;;;2.40;;
75035;SDS011;64247;51.540;5.854;2023-06-14T07:17:47;5.90;;;2.15;;
75035;SDS011;64247;51.540;5.854;2023-06-14T07:19:48;8.88;;;2.50;;
75035;SDS011;64247;51.540;5.854;2023-06-14T07:21:50;2.70;;;2.22;;
75035;SDS011;64247;51.540;5.854;2023-06-14T07:23:53;7.28;;;2.30;;
75035;SDS011;64247;51.540;5.854;2023-06-14T07:25:53;5.10;;;2.25;;
75035;SDS011;64247;51.540;5.854;2023-06-14T07:27:54;8.43;;;2.70;;
75035;SDS011;64247;51.540;5.854;2023-06-14T07:29:55;3.35;;;2.13;;
75035;SDS011;64247;51.540;5.854;2023-06-14T07:31:56;3.15;;;2.13;;
75035;SDS011;64247;51.540;5.854;2023-06-14T07:33:57;4.03;;;2.33;;
75035;SDS011;64247;51.540;5.854;2023-06-14T07:35:57;12.77;;;2.83;;
75035;SDS011;64247;51.540;5.854;2023-06-14T07:37:58;3.22;;;2.40;;
75035;SDS011;64247;51.540;5.854;2023-06-14T07:39:59;4.15;;;3.10;;
75035;SDS011;64247;51.540;5.854;2023-06-14T07:42:00;7.35;;;2.20;;
75035;SDS011;64247;51.540;5.854;2023-06-14T07:44:00;2.83;;;2.53;;
75035;SDS011;64247;51.540;5.854;2023-06-14T07:46:01;3.25;;;2.28;;
75035;SDS011;64247;51.540;5.854;2023-06-14T07:48:02;3.85;;;2.03;;
75035;SDS011;64247;51.540;5.854;2023-06-14T07:50:04;4.30;;;2.15;;
75035;SDS011;64247;51.540;5.854;2023-06-14T07:52:06;11.32;;;2.58;;
75035;SDS011;64247;51.540;5.854;2023-06-14T07:54:07;3.03;;;1.85;;
75035;SDS011;64247;51.540;5.854;2023-06-14T07:56:08;6.15;;;2.05;;
75035;SDS011;64247;51.540;5.854;2023-06-14T07:58:09;2.67;;;1.92;;
75035;SDS011;64247;51.540;5.854;2023-06-14T08:00:11;2.22;;;1.90;;
75035;SDS011;64247;51.540;5.854;2023-06-14T08:02:15;6.10;;;2.17;;
75035;SDS011;64247;51.540;5.854;2023-06-14T08:04:16;2.30;;;1.50;;
75035;SDS011;64247;51.540;5.854;2023-06-14T08:06:17;3.85;;;1.63;;
75035;SDS011;64247;51.540;5.854;2023-06-14T08:08:17;2.42;;;1.60;;
75035;SDS011;64247;51.540;5.854;2023-06-14T08:10:18;1.42;;;1.08;;
75035;SDS011;64247;51.540;5.854;2023-06-14T08:12:19;6.00;;;1.70;;
75035;SDS011;64247;51.540;5.854;2023-06-14T08:14:20;6.32;;;1.77;;
75035;SDS011;64247;51.540;5.854;2023-06-14T08:16:20;3.78;;;1.30;;
75035;SDS011;64247;51.540;5.854;2023-06-14T08:18:21;2.38;;;1.30;;
75035;SDS011;64247;51.540;5.854;2023-06-14T08:20:22;1.63;;;1.40;;
75035;SDS011;64247;51.540;5.854;2023-06-14T08:22:24;1.63;;;0.95;;
75035;SDS011;64247;51.540;5.854;2023-06-14T08:24:25;3.75;;;1.15;;
75035;SDS011;64247;51.540;5.854;2023-06-14T08:26:29;4.38;;;1.52;;
75035;SDS011;64247;51.540;5.854;2023-06-14T08:28:32;9.88;;;1.95;;
75035;SDS011;64247;51.540;5.854;2023-06-14T08:30:32;16.27;;;2.63;;
75035;SDS011;64247;51.540;5.854;2023-06-14T08:32:33;10.38;;;1.83;;
75035;SDS011;64247;51.540;5.854;2023-06-14T08:34:34;1.92;;;1.17;;
75035;SDS011;64247;51.540;5.854;2023-06-14T08:36:35;10.93;;;1.45;;
75035;SDS011;64247;51.540;5.854;2023-06-14T08:38:36;1.02;;;0.95;;
75035;SDS011;64247;51.540;5.854;2023-06-14T08:40:37;2.67;;;1.15;;
75035;SDS011;64247;51.540;5.854;2023-06-14T08:42:39;1.15;;;0.73;;
75035;SDS011;64247;51.540;5.854;2023-06-14T08:44:41;4.38;;;1.10;;
75035;SDS011;64247;51.540;5.854;2023-06-14T08:46:42;0.88;;;0.60;;
75035;SDS011;64247;51.540;5.854;2023-06-14T08:48:43;2.17;;;1.23;;
75035;SDS011;64247;51.540;5.854;2023-06-14T08:50:44;7.25;;;1.48;;
75035;SDS011;64247;51.540;5.854;2023-06-14T08:52:45;2.20;;;0.77;;
75035;SDS011;64247;51.540;5.854;2023-06-14T08:54:53;3.47;;;1.08;;
75035;SDS011;64247;51.540;5.854;2023-06-14T08:56:53;2.03;;;0.88;;
75035;SDS011;64247;51.540;5.854;2023-06-14T08:58:57;6.18;;;1.40;;
75035;SDS011;64247;51.540;5.854;2023-06-14T09:01:03;1.70;;;0.80;;
75035;SDS011;64247;51.540;5.854;2023-06-14T09:03:05;1.77;;;1.33;;
75035;SDS011;64247;51.540;5.854;2023-06-14T09:05:06;10.00;;;1.48;;
75035;SDS011;64247;51.540;5.854;2023-06-14T09:07:06;5.40;;;1.75;;
75035;SDS011;64247;51.540;5.854;2023-06-14T09:09:07;4.63;;;1.55;;
75035;SDS011;64247;51.540;5.854;2023-06-14T09:11:08;1.55;;;1.23;;
75035;SDS011;64247;51.540;5.854;2023-06-14T09:13:11;1.55;;;0.80;;
75035;SDS011;64247;51.540;5.854;2023-06-14T09:15:12;1.35;;;1.00;;
75035;SDS011;64247;51.540;5.854;2023-06-14T09:17:14;1.73;;;1.23;;
75035;SDS011;64247;51.540;5.854;2023-06-14T09:21:36;1.38;;;1.15;;
75035;SDS011;64247;51.540;5.854;2023-06-14T09:23:38;2.58;;;1.20;;
75035;SDS011;64247;51.540;5.854;2023-06-14T09:25:43;6.43;;;1.40;;
75035;SDS011;64247;51.540;5.854;2023-06-14T09:27:46;5.18;;;1.33;;
75035;SDS011;64247;51.540;5.854;2023-06-14T09:29:47;1.85;;;1.20;;
75035;SDS011;64247;51.540;5.854;2023-06-14T09:31:48;8.35;;;1.60;;
75035;SDS011;64247;51.540;5.854;2023-06-14T09:33:50;2.15;;;1.13;;
75035;SDS011;64247;51.540;5.854;2023-06-14T09:35:51;2.45;;;1.40;;
75035;SDS011;64247;51.540;5.854;2023-06-14T09:37:52;7.80;;;1.42;;
75035;SDS011;64247;51.540;5.854;2023-06-14T09:39:56;6.15;;;2.05;;
75035;SDS011;64247;51.540;5.854;2023-06-14T09:41:57;6.53;;;2.00;;
75035;SDS011;64247;51.540;5.854;2023-06-14T09:43:58;9.73;;;2.25;;
75035;SDS011;64247;51.540;5.854;2023-06-14T09:46:09;2.50;;;1.17;;
75035;SDS011;64247;51.540;5.854;2023-06-14T09:48:10;1.70;;;1.27;;
75035;SDS011;64247;51.540;5.854;2023-06-14T09:50:11;1.23;;;1.13;;
75035;SDS011;64247;51.540;5.854;2023-06-14T09:52:15;4.57;;;1.50;;
75035;SDS011;64247;51.540;5.854;2023-06-14T09:54:20;1.85;;;1.75;;
75035;SDS011;64247;51.540;5.854;2023-06-14T09:56:26;3.92;;;1.20;;
75035;SDS011;64247;51.540;5.854;2023-06-14T09:58:31;2.22;;;1.40;;
75035;SDS011;64247;51.540;5.854;2023-06-14T10:00:36;31.25;;;2.67;;
75035;SDS011;64247;51.540;5.854;2023-06-14T10:02:40;9.98;;;1.88;;
75035;SDS011;64247;51.540;5.854;2023-06-14T10:04:50;14.90;;;2.47;;
75035;SDS011;64247;51.540;5.854;2023-06-14T10:06:58;6.43;;;1.95;;
75035;SDS011;64247;51.540;5.854;2023-06-14T10:09:01;8.27;;;1.48;;
75035;SDS011;64247;51.540;5.854;2023-06-14T10:11:04;8.77;;;2.63;;
75035;SDS011;64247;51.540;5.854;2023-06-14T10:13:04;3.80;;;1.40;;
75035;SDS011;64247;51.540;5.854;2023-06-14T10:15:08;2.35;;;1.20;;
75035;SDS011;64247;51.540;5.854;2023-06-14T10:20:03;2.63;;;1.67;;
75035;SDS011;64247;51.540;5.854;2023-06-14T10:22:16;2.40;;;1.05;;
75035;SDS011;64247;51.540;5.854;2023-06-14T10:24:32;6.05;;;1.33;;
75035;SDS011;64247;51.540;5.854;2023-06-14T10:26:59;8.00;;;1.65;;
75035;SDS011;64247;51.540;5.854;2023-06-14T10:29:00;2.13;;;1.33;;
75035;SDS011;64247;51.540;5.854;2023-06-14T10:31:08;7.03;;;1.65;;
75035;SDS011;64247;51.540;5.854;2023-06-14T10:33:10;5.13;;;1.70;;
75035;SDS011;64247;51.540;5.854;2023-06-14T10:35:16;5.10;;;1.50;;
75035;SDS011;64247;51.540;5.854;2023-06-14T10:37:17;3.97;;;1.45;;
75035;SDS011;64247;51.540;5.854;2023-06-14T10:39:18;3.55;;;1.45;;
75035;SDS011;64247;51.540;5.854;2023-06-14T10:41:20;5.03;;;2.42;;
75035;SDS011;64247;51.540;5.854;2023-06-14T10:43:21;6.40;;;1.33;;
75035;SDS011;64247;51.540;5.854;2023-06-14T10:45:23;7.05;;;1.70;;
75035;SDS011;64247;51.540;5.854;2023-06-14T10:49:44;1.98;;;1.60;;
75035;SDS011;64247;51.540;5.854;2023-06-14T10:51:49;9.25;;;2.53;;
75035;SDS011;64247;51.540;5.854;2023-06-14T10:53:52;16.90;;;2.30;;
75035;SDS011;64247;51.540;5.854;2023-06-14T10:55:52;8.23;;;1.73;;
75035;SDS011;64247;51.540;5.854;2023-06-14T10:57:53;9.13;;;2.13;;
75035;SDS011;64247;51.540;5.854;2023-06-14T10:59:59;4.32;;;1.45;;
75035;SDS011;64247;51.540;5.854;2023-06-14T11:04:47;8.25;;;1.60;;
75035;SDS011;64247;51.540;5.854;2023-06-14T11:06:49;8.27;;;1.65;;
75035;SDS011;64247;51.540;5.854;2023-06-14T11:11:36;3.03;;;1.42;;
75035;SDS011;64247;51.540;5.854;2023-06-14T11:13:42;5.72;;;1.38;;
75035;SDS011;64247;51.540;5.854;2023-06-14T11:15:45;4.13;;;1.10;;
75035;SDS011;64247;51.540;5.854;2023-06-14T11:17:51;3.13;;;1.27;;
75035;SDS011;64247;51.540;5.854;2023-06-14T11:22:16;3.35;;;2.03;;
75035;SDS011;64247;51.540;5.854;2023-06-14T11:24:17;10.70;;;1.55;;
75035;SDS011;64247;51.540;5.854;2023-06-14T11:28:40;3.58;;;1.33;;
75035;SDS011;64247;51.540;5.854;2023-06-14T11:30:41;9.93;;;1.60;;
75035;SDS011;64247;51.540;5.854;2023-06-14T11:32:42;2.80;;;1.10;;
75035;SDS011;64247;51.540;5.854;2023-06-14T11:34:46;7.47;;;1.90;;
75035;SDS011;64247;51.540;5.854;2023-06-14T11:36:47;2.53;;;1.15;;
75035;SDS011;64247;51.540;5.854;2023-06-14T11:38:48;2.75;;;1.10;;
75035;SDS011;64247;51.540;5.854;2023-06-14T11:40:50;1.90;;;1.15;;
75035;SDS011;64247;51.540;5.854;2023-06-14T11:42:57;2.45;;;1.42;;
75035;SDS011;64247;51.540;5.854;2023-06-14T11:45:00;3.17;;;1.25;;
75035;SDS011;64247;51.540;5.854;2023-06-14T11:47:03;1.27;;;1.13;;
75035;SDS011;64247;51.540;5.854;2023-06-14T11:49:04;11.13;;;2.08;;
75035;SDS011;64247;51.540;5.854;2023-06-14T11:51:07;5.00;;;1.70;;
75035;SDS011;64247;51.540;5.854;2023-06-14T11:53:08;4.65;;;1.80;;
75035;SDS011;64247;51.540;5.854;2023-06-14T11:55:10;26.67;;;3.75;;
75035;SDS011;64247;51.540;5.854;2023-06-14T11:57:11;7.63;;;2.22;;
75035;SDS011;64247;51.540;5.854;2023-06-14T11:59:12;5.05;;;1.67;;
75035;SDS011;64247;51.540;5.854;2023-06-14T12:01:14;4.22;;;1.50;;
75035;SDS011;64247;51.540;5.854;2023-06-14T12:03:17;3.97;;;1.73;;
75035;SDS011;64247;51.540;5.854;2023-06-14T12:05:20;1.77;;;1.20;;
75035;SDS011;64247;51.540;5.854;2023-06-14T12:07:21;2.47;;;0.93;;
75035;SDS011;64247;51.540;5.854;2023-06-14T12:09:22;1.55;;;0.95;;
75035;SDS011;64247;51.540;5.854;2023-06-14T12:11:32;1.35;;;1.20;;
75035;SDS011;64247;51.540;5.854;2023-06-14T12:13:37;2.28;;;0.80;;
75035;SDS011;64247;51.540;5.854;2023-06-14T12:15:39;4.65;;;1.33;;
75035;SDS011;64247;51.540;5.854;2023-06-14T12:17:40;3.63;;;1.30;;
75035;SDS011;64247;51.540;5.854;2023-06-14T12:19:44;4.63;;;1.38;;
75035;SDS011;64247;51.540;5.854;2023-06-14T12:21:46;10.38;;;1.70;;
75035;SDS011;64247;51.540;5.854;2023-06-14T12:23:51;2.33;;;1.33;;
75035;SDS011;64247;51.540;5.854;2023-06-14T12:25:51;6.93;;;1.80;;
75035;SDS011;64247;51.540;5.854;2023-06-14T12:27:55;4.55;;;1.27;;
75035;SDS011;64247;51.540;5.854;2023-06-14T12:30:00;4.55;;;1.33;;
75035;SDS011;64247;51.540;5.854;2023-06-14T12:32:05;5.10;;;1.00;;
75035;SDS011;64247;51.540;5.854;2023-06-14T12:34:06;5.22;;;1.30;;
75035;SDS011;64247;51.540;5.854;2023-06-14T12:36:08;1.33;;;0.90;;
75035;SDS011;64247;51.540;5.854;2023-06-14T12:38:10;17.02;;;2.83;;